createdAt,value
2018-01-10T00:00:31.467Z,2.6
2018-01-10T00:16:06.325Z,2.6
2018-01-10T00:30:04.057Z,2.4
2018-01-10T00:45:02.424Z,2.4
2018-01-10T01:00:04.816Z,1.9
2018-01-10T01:15:03.376Z,2
2018-01-10T01:30:03.153Z,2.1
2018-01-10T01:45:33.619Z,1.8
2018-01-10T02:00:07.967Z,1.7
2018-01-10T02:15:10.102Z,1.7
2018-01-10T02:30:10.143Z,1.9
2018-01-10T03:00:17.695Z,1.7
2018-01-10T03:15:03.748Z,1.4
2018-01-10T03:30:06.943Z,1.6
2018-01-10T03:45:05.057Z,1.8
2018-01-10T04:00:09.207Z,1.4
2018-01-10T04:15:02.537Z,1.1
2018-01-10T04:30:03.359Z,1.3
2018-01-10T04:45:18.699Z,1.4
2018-01-10T05:00:10.733Z,1.3
2018-01-10T05:15:10.434Z,0.8
2018-01-10T05:30:04.361Z,1
2018-01-10T05:45:10.946Z,0.9
2018-01-10T06:00:38.524Z,0.8
2018-01-10T06:15:44.730Z,0.7
2018-01-10T06:30:05.457Z,0.9
2018-01-10T06:45:08.418Z,0.9
2018-01-10T07:00:08.955Z,1.1
2018-01-10T07:30:03.883Z,1.2
2018-01-10T07:45:27.123Z,1.3
2018-01-10T08:00:07.559Z,1.4
2018-01-10T08:15:03.886Z,1.6
2018-01-10T08:30:08.622Z,1.7
2018-01-10T08:45:03.242Z,2.1
2018-01-10T09:00:07.864Z,3.1
2018-01-10T09:15:05.381Z,3.9
2018-01-10T09:30:09.038Z,4.6
2018-01-10T10:00:05.937Z,5.8
2018-01-10T10:15:02.210Z,6
2018-01-10T10:30:03.336Z,6.1
2018-01-10T10:45:02.346Z,6.5
2018-01-10T11:00:04.731Z,6.8
2018-01-10T11:15:08.417Z,7.3
2018-01-10T11:30:15.933Z,7.4
2018-01-10T11:45:05.269Z,7.8
2018-01-10T12:00:08.519Z,8
2018-01-10T12:15:03.079Z,8.3
2018-01-10T12:30:12.582Z,8.3
2018-01-10T12:45:03.021Z,8.2
2018-01-10T13:00:05.522Z,8.3
2018-01-10T13:15:04.569Z,8.4
2018-01-10T13:45:02.750Z,8.4
2018-01-10T14:00:16.120Z,8.4
2018-01-10T14:15:13.999Z,8.3
2018-01-10T14:30:04.736Z,8.1
2018-01-10T14:45:09.485Z,8.1
2018-01-10T15:00:08.208Z,7.6
2018-01-10T15:15:03.218Z,7.1
2018-01-10T15:30:02.664Z,6.4
2018-01-10T15:45:02.931Z,6.1
2018-01-10T16:00:17.259Z,5.4
2018-01-10T16:30:16.208Z,4.6
2018-01-10T16:45:27.346Z,4.3
2018-01-10T17:00:03.051Z,4.1
2018-01-10T17:15:02.357Z,4.1
2018-01-10T17:30:08.629Z,4.1
2018-01-10T17:45:06.314Z,3.9
2018-01-10T18:00:16.282Z,3.8
2018-01-10T18:15:02.507Z,3.8
2018-01-10T18:30:03.255Z,3.6
2018-01-10T18:45:02.679Z,3.8
2018-01-10T19:00:08.304Z,3.8
2018-01-10T19:15:15.822Z,3.6
2018-01-10T19:30:03.346Z,3.4
2018-01-10T19:45:02.665Z,3.2
2018-01-10T20:00:03.056Z,3.4
2018-01-10T20:15:07.830Z,3.5
2018-01-10T20:30:03.597Z,3.4
2018-01-10T20:45:03.003Z,3.3
2018-01-10T21:00:02.285Z,3.1
2018-01-10T21:15:02.609Z,3.2
2018-01-10T21:31:22.285Z,2.8
2018-01-10T22:00:16.353Z,2.8
2018-01-10T22:15:04.495Z,2.6
2018-01-10T22:30:02.767Z,2.6
2018-01-10T22:45:34.210Z,2.6
2018-01-10T23:00:02.641Z,2.4
2018-01-10T23:15:20.581Z,2.6
2018-01-10T23:30:02.958Z,2.4
2018-01-10T23:45:02.667Z,2.3
